createdAt,value
2023-05-10T00:01:55.832Z,10.63
2023-05-10T00:16:58.332Z,10.52
2023-05-10T00:32:01.049Z,10.46
2023-05-10T00:47:03.367Z,10.32
2023-05-10T01:02:05.878Z,10.35
2023-05-10T01:17:10.708Z,10.26
2023-05-10T01:32:39.826Z,10.19
2023-05-10T01:47:45.027Z,10.10
2023-05-10T02:02:50.211Z,9.95
2023-05-10T02:17:56.027Z,9.89
2023-05-10T02:33:00.254Z,9.87
2023-05-10T02:48:02.985Z,9.93
2023-05-10T03:03:08.332Z,10.07
2023-05-10T03:18:35.144Z,10.21
2023-05-10T03:33:37.534Z,10.34
2023-05-10T03:48:39.528Z,10.44
2023-05-10T04:03:41.795Z,11.36
2023-05-10T04:18:46.108Z,12.23
2023-05-10T04:33:48.346Z,12.91
2023-05-10T04:48:50.397Z,13.32
2023-05-10T05:03:55.532Z,13.70
2023-05-10T05:18:57.811Z,14.24
2023-05-10T05:34:04.998Z,15.12
2023-05-10T05:49:08.413Z,14.13
2023-05-10T06:04:10.485Z,14.27
2023-05-10T06:19:12.690Z,14.30
2023-05-10T06:34:15.408Z,16.08
2023-05-10T06:49:18.071Z,16.55
2023-05-10T07:04:20.201Z,15.65
2023-05-10T07:19:23.096Z,15.35
2023-05-10T07:34:25.602Z,14.70
2023-05-10T07:49:28.817Z,14.98
2023-05-10T08:04:32.518Z,14.86
2023-05-10T08:19:41.185Z,15.13
2023-05-10T08:34:48.267Z,14.27
2023-05-10T08:49:52.386Z,14.47
2023-05-10T09:04:54.520Z,15.37
2023-05-10T09:20:06.474Z,16.95
2023-05-10T09:35:13.241Z,15.41
2023-05-10T09:50:15.397Z,14.42
2023-05-10T10:05:17.559Z,17.16
2023-05-10T10:20:21.577Z,18.44
2023-05-10T10:35:24.486Z,16.67
2023-05-10T10:50:26.400Z,17.60
2023-05-10T11:05:36.640Z,18.23
2023-05-10T11:20:41.622Z,17.08
2023-05-10T11:35:44.257Z,17.76
2023-05-10T11:50:47.312Z,18.13
2023-05-10T12:05:49.317Z,17.43
2023-05-10T12:20:53.887Z,17.31
2023-05-10T12:35:57.865Z,15.52
2023-05-10T12:50:59.660Z,14.83
2023-05-10T13:06:01.541Z,15.21
2023-05-10T13:21:05.108Z,15.82
2023-05-10T13:36:08.463Z,16.18
2023-05-10T13:51:10.543Z,16.29
2023-05-10T14:06:12.769Z,15.79
2023-05-10T14:21:14.833Z,15.71
2023-05-10T14:36:17.283Z,15.66
2023-05-10T14:51:22.892Z,15.18
2023-05-10T15:06:31.918Z,14.76
2023-05-10T15:21:39.825Z,14.39
2023-05-10T15:36:41.879Z,14.33
2023-05-10T15:51:43.693Z,14.25
2023-05-10T16:06:45.589Z,14.07
2023-05-10T16:21:47.702Z,13.95
2023-05-10T16:36:49.883Z,13.75
2023-05-10T16:51:51.738Z,13.50
2023-05-10T17:06:53.547Z,13.43
2023-05-10T17:21:55.527Z,13.34
2023-05-10T17:36:58.485Z,13.20
2023-05-10T17:52:02.547Z,13.04
2023-05-10T18:07:04.452Z,12.82
2023-05-10T18:22:08.899Z,12.74
2023-05-10T18:37:12.743Z,12.59
2023-05-10T18:52:16.184Z,12.41
2023-05-10T19:07:18.016Z,11.76
2023-05-10T19:22:28.612Z,12.12
2023-05-10T19:37:39.077Z,11.93
2023-05-10T19:52:40.930Z,11.77
2023-05-10T20:07:42.735Z,11.77
2023-05-10T20:22:44.840Z,11.65
2023-05-10T20:37:48.919Z,11.49
2023-05-10T20:52:54.123Z,11.47
2023-05-10T21:07:56.150Z,11.31
2023-05-10T21:22:58.508Z,11.13
2023-05-10T21:38:00.622Z,10.87
2023-05-10T21:53:02.817Z,10.69
2023-05-10T22:08:08.207Z,10.57
2023-05-10T22:23:10.282Z,10.54
2023-05-10T22:38:13.062Z,10.41
2023-05-10T22:53:15.117Z,10.18
2023-05-10T23:08:17.316Z,9.84
2023-05-10T23:23:19.185Z,9.71
2023-05-10T23:38:22.105Z,9.51
2023-05-10T23:53:23.945Z,9.46
